createdAt,value
2019-03-27T00:00:46.366Z,18.47
2019-03-27T00:05:51.215Z,17.25
2019-03-27T00:10:56.181Z,22.60
2019-03-27T00:16:00.925Z,18.43
2019-03-27T00:21:06.897Z,13.40
2019-03-27T00:26:11.944Z,8.13
2019-03-27T00:31:18.000Z,8.10
2019-03-27T00:36:22.736Z,7.27
2019-03-27T00:41:27.603Z,6.57
2019-03-27T00:46:32.322Z,6.80
2019-03-27T00:51:37.166Z,7.47
2019-03-27T00:56:42.239Z,7.73
2019-03-27T01:01:47.162Z,7.23
2019-03-27T01:06:52.036Z,8.67
2019-03-27T01:11:56.850Z,7.53
2019-03-27T01:17:02.131Z,9.77
2019-03-27T01:22:06.950Z,8.60
2019-03-27T01:27:11.925Z,10.37
2019-03-27T01:32:18.510Z,9.57
2019-03-27T01:37:23.235Z,7.83
2019-03-27T01:42:28.236Z,8.80
2019-03-27T01:47:33.039Z,9.90
2019-03-27T01:52:37.874Z,8.80
2019-03-27T01:57:42.832Z,10.13
2019-03-27T02:02:47.557Z,9.23
2019-03-27T02:07:52.315Z,11.30
2019-03-27T02:12:57.375Z,10.10
2019-03-27T02:18:02.107Z,8.27
2019-03-27T02:23:07.155Z,8.33
2019-03-27T02:28:11.898Z,7.37
2019-03-27T02:33:17.240Z,11.07
2019-03-27T02:38:21.980Z,9.40
2019-03-27T02:43:27.046Z,7.27
2019-03-27T02:48:31.790Z,7.93
2019-03-27T02:53:36.615Z,8.40
2019-03-27T02:58:41.350Z,8.30
2019-03-27T03:03:46.092Z,7.60
2019-03-27T03:08:51.065Z,6.77
2019-03-27T03:13:56.911Z,6.70
2019-03-27T03:19:01.789Z,7.57
2019-03-27T03:24:06.803Z,5.90
2019-03-27T03:29:11.882Z,5.77
2019-03-27T03:34:17.882Z,5.30
2019-03-27T03:39:23.692Z,5.87
2019-03-27T03:44:28.435Z,6.10
2019-03-27T03:49:33.280Z,4.83
2019-03-27T03:54:38.328Z,5.63
2019-03-27T03:59:44.014Z,7.97
2019-03-27T04:04:50.609Z,6.00
2019-03-27T04:09:55.342Z,5.65
2019-03-27T04:15:00.230Z,6.33
2019-03-27T04:20:07.598Z,7.20
2019-03-27T04:25:12.640Z,6.90
2019-03-27T04:30:17.656Z,5.90
2019-03-27T04:35:22.740Z,5.93
2019-03-27T04:40:27.459Z,7.13
2019-03-27T04:45:32.515Z,9.77
2019-03-27T04:50:37.579Z,7.40
2019-03-27T04:55:43.550Z,15.23
2019-03-27T05:00:49.521Z,7.47
2019-03-27T05:05:54.263Z,8.73
2019-03-27T05:10:59.091Z,7.20
2019-03-27T05:16:04.053Z,7.83
2019-03-27T05:21:08.898Z,8.90
2019-03-27T05:26:13.845Z,9.73
2019-03-27T05:31:18.593Z,13.27
2019-03-27T05:36:23.790Z,14.97
2019-03-27T05:41:28.696Z,7.80
2019-03-27T05:46:33.506Z,8.77
2019-03-27T05:51:38.371Z,8.23
2019-03-27T05:56:43.529Z,6.80
2019-03-27T06:01:48.575Z,10.23
2019-03-27T06:06:53.318Z,11.20
2019-03-27T06:11:58.038Z,11.00
2019-03-27T06:17:03.117Z,13.58
2019-03-27T06:22:07.798Z,12.03
2019-03-27T06:27:12.902Z,9.33
2019-03-27T06:32:17.645Z,11.80
2019-03-27T06:37:23.921Z,7.37
2019-03-27T06:42:28.664Z,8.88
2019-03-27T06:47:33.687Z,6.93
2019-03-27T06:52:38.762Z,8.70
2019-03-27T06:57:43.506Z,8.07
2019-03-27T07:02:48.247Z,5.50
2019-03-27T07:07:52.991Z,6.47
2019-03-27T07:12:57.809Z,4.40
2019-03-27T07:18:02.778Z,4.97
2019-03-27T07:23:07.828Z,5.10
2019-03-27T07:28:12.574Z,5.83
2019-03-27T07:33:18.334Z,5.93
2019-03-27T07:38:23.589Z,5.70
2019-03-27T07:43:28.642Z,6.23
2019-03-27T07:48:33.673Z,6.00
2019-03-27T07:53:38.435Z,5.17
2019-03-27T07:58:43.171Z,6.17
2019-03-27T08:03:47.920Z,5.70
2019-03-27T08:08:52.655Z,7.20
2019-03-27T08:13:57.725Z,5.12
2019-03-27T08:19:07.724Z,5.00
2019-03-27T08:24:09.342Z,5.62
2019-03-27T08:29:15.162Z,4.08
2019-03-27T08:34:20.053Z,4.37
2019-03-27T08:39:26.646Z,4.33
2019-03-27T08:44:31.382Z,6.20
2019-03-27T08:49:36.121Z,4.37
2019-03-27T08:54:41.174Z,5.22
2019-03-27T08:59:46.226Z,5.47
2019-03-27T09:04:51.247Z,4.62
2019-03-27T09:09:56.320Z,5.33
2019-03-27T09:15:01.368Z,5.37
2019-03-27T09:20:07.953Z,4.90
2019-03-27T09:25:13.009Z,5.72
2019-03-27T09:30:18.322Z,4.58
2019-03-27T09:35:23.407Z,5.35
2019-03-27T09:40:28.456Z,5.35
2019-03-27T09:45:33.205Z,4.67
2019-03-27T09:50:37.940Z,3.98
2019-03-27T09:55:42.683Z,4.47
2019-03-27T10:00:55.389Z,3.72
2019-03-27T10:06:00.344Z,4.50
2019-03-27T10:11:05.486Z,4.80
2019-03-27T10:16:10.661Z,4.15
2019-03-27T10:21:15.611Z,4.00
2019-03-27T10:26:20.297Z,3.47
2019-03-27T10:31:25.378Z,3.72
2019-03-27T10:36:30.141Z,3.33
2019-03-27T10:41:35.584Z,4.70
2019-03-27T10:46:40.293Z,3.20
2019-03-27T10:51:45.377Z,2.60
2019-03-27T10:56:50.339Z,2.67
2019-03-27T11:01:55.387Z,2.05
2019-03-27T11:07:00.209Z,2.25
2019-03-27T11:12:05.184Z,2.60
2019-03-27T11:17:10.206Z,2.50
2019-03-27T11:22:15.278Z,2.40
2019-03-27T11:27:20.325Z,2.92
2019-03-27T11:32:25.274Z,2.22
2019-03-27T11:37:30.424Z,2.72
2019-03-27T11:42:35.475Z,3.40
2019-03-27T11:47:40.522Z,2.55
2019-03-27T11:52:45.571Z,2.40
2019-03-27T11:57:50.622Z,2.70
2019-03-27T12:02:55.316Z,1.98
2019-03-27T12:08:00.417Z,2.40
2019-03-27T12:13:05.461Z,2.30
2019-03-27T12:18:11.434Z,2.22
2019-03-27T12:23:16.106Z,2.98
2019-03-27T12:28:20.916Z,2.02
2019-03-27T12:33:25.604Z,2.65
2019-03-27T12:38:30.710Z,2.17
2019-03-27T12:43:35.762Z,2.62
2019-03-27T12:48:40.687Z,2.70
2019-03-27T12:53:45.530Z,2.65
2019-03-27T12:58:50.602Z,2.58
2019-03-27T13:03:55.628Z,2.05
2019-03-27T13:09:00.699Z,2.37
2019-03-27T13:14:06.053Z,1.98
2019-03-27T13:19:10.794Z,2.30
2019-03-27T13:24:15.536Z,2.67
2019-03-27T13:29:20.585Z,2.90
2019-03-27T13:34:25.622Z,1.80
2019-03-27T13:39:30.683Z,1.90
2019-03-27T13:44:37.230Z,2.12
2019-03-27T13:54:47.584Z,3.55
2019-03-27T13:59:52.363Z,2.30
2019-03-27T14:04:57.157Z,2.87
2019-03-27T14:10:01.847Z,2.12
2019-03-27T14:15:09.713Z,2.98
2019-03-27T14:20:15.464Z,3.25
2019-03-27T14:25:22.234Z,3.08
2019-03-27T14:30:46.875Z,2.63
2019-03-27T14:35:51.731Z,3.20
2019-03-27T14:40:56.546Z,2.75
2019-03-27T14:46:01.426Z,2.70
2019-03-27T14:51:07.254Z,3.00
2019-03-27T14:56:12.226Z,2.40
2019-03-27T15:01:17.279Z,2.60
2019-03-27T15:06:22.096Z,2.50
2019-03-27T15:11:27.069Z,2.62
2019-03-27T15:16:31.818Z,5.95
2019-03-27T15:21:36.633Z,4.20
2019-03-27T15:26:41.396Z,3.22
2019-03-27T15:31:46.341Z,3.37
2019-03-27T15:36:51.158Z,6.37
2019-03-27T15:41:56.131Z,4.95
2019-03-27T15:47:01.191Z,3.33
2019-03-27T15:52:06.102Z,3.42
2019-03-27T15:57:11.036Z,4.00
2019-03-27T16:02:16.023Z,4.95
2019-03-27T16:07:21.350Z,4.97
2019-03-27T16:12:26.107Z,6.92
2019-03-27T16:17:30.862Z,4.72
2019-03-27T16:22:49.499Z,4.33
2019-03-27T16:27:42.498Z,6.17
2019-03-27T16:32:47.244Z,4.22
2019-03-27T16:37:52.277Z,4.85
2019-03-27T16:42:57.033Z,5.10
2019-03-27T16:48:02.079Z,7.17
2019-03-27T16:53:06.975Z,6.40
2019-03-27T16:58:12.181Z,6.05
2019-03-27T17:03:17.009Z,6.12
2019-03-27T17:08:22.048Z,5.15
2019-03-27T17:13:27.041Z,4.92
2019-03-27T17:18:31.841Z,5.58
2019-03-27T17:23:36.808Z,6.70
2019-03-27T17:28:41.666Z,6.90
2019-03-27T17:33:46.394Z,8.85
2019-03-27T17:38:52.271Z,7.80
2019-03-27T17:43:57.414Z,10.75
2019-03-27T17:49:02.138Z,7.35
2019-03-27T17:54:19.971Z,8.20
2019-03-27T17:59:13.315Z,7.53
2019-03-27T18:04:18.098Z,7.70
2019-03-27T18:09:22.822Z,9.78
2019-03-27T18:14:27.914Z,11.05
2019-03-27T18:19:32.696Z,9.33
2019-03-27T18:24:37.682Z,9.88
2019-03-27T18:29:42.528Z,9.75
2019-03-27T18:34:47.497Z,10.53
2019-03-27T18:39:52.941Z,10.95
2019-03-27T18:44:57.904Z,11.95
2019-03-27T18:50:02.646Z,12.00
2019-03-27T18:55:07.712Z,12.68
2019-03-27T19:00:13.398Z,12.78
2019-03-27T19:05:18.508Z,13.83
2019-03-27T19:10:23.458Z,13.58
2019-03-27T19:15:28.201Z,11.53
2019-03-27T19:20:33.025Z,12.80
2019-03-27T19:25:37.989Z,11.65
2019-03-27T19:30:42.836Z,11.10
2019-03-27T19:35:47.782Z,9.70
2019-03-27T19:40:53.214Z,8.35
2019-03-27T19:45:58.191Z,7.92
2019-03-27T19:51:03.235Z,8.25
2019-03-27T19:56:08.054Z,7.95
2019-03-27T20:01:13.333Z,8.55
2019-03-27T20:06:18.177Z,9.45
2019-03-27T20:11:23.164Z,10.68
2019-03-27T20:16:28.185Z,9.83
2019-03-27T20:21:33.226Z,10.08
2019-03-27T20:26:38.042Z,9.95
2019-03-27T20:31:42.899Z,11.65
2019-03-27T20:36:47.758Z,10.53
2019-03-27T20:41:54.524Z,10.40
2019-03-27T20:46:59.391Z,9.90
2019-03-27T20:52:04.457Z,11.08
2019-03-27T20:57:09.493Z,12.13
2019-03-27T21:02:14.414Z,10.63
2019-03-27T21:07:19.261Z,12.35
2019-03-27T21:12:24.341Z,12.25
2019-03-27T21:17:29.083Z,11.63
2019-03-27T21:22:33.763Z,11.80
2019-03-27T21:27:38.532Z,14.33
2019-03-27T21:32:43.604Z,15.43
2019-03-27T21:37:48.322Z,15.08
2019-03-27T21:42:53.398Z,41.80
2019-03-27T21:47:58.139Z,15.45
2019-03-27T21:53:03.186Z,13.95
2019-03-27T21:58:08.214Z,14.40
2019-03-27T22:03:12.989Z,13.80
2019-03-27T22:08:18.027Z,14.83
2019-03-27T22:13:23.384Z,15.15
2019-03-27T22:18:28.437Z,14.15
2019-03-27T22:23:33.487Z,14.10
2019-03-27T22:28:38.203Z,12.23
2019-03-27T22:33:43.273Z,12.70
2019-03-27T22:38:48.019Z,12.98
2019-03-27T22:43:53.066Z,12.37
2019-03-27T22:48:58.090Z,11.40
2019-03-27T22:54:03.164Z,12.55
2019-03-27T22:59:07.986Z,13.48
2019-03-27T23:04:12.956Z,15.20
2019-03-27T23:09:17.697Z,14.70
2019-03-27T23:14:22.521Z,12.60
2019-03-27T23:19:27.466Z,12.78
2019-03-27T23:24:32.309Z,13.65
2019-03-27T23:29:37.155Z,15.13
2019-03-27T23:34:42.619Z,13.03
2019-03-27T23:39:47.690Z,14.03
2019-03-27T23:44:53.657Z,14.75
2019-03-27T23:49:58.478Z,12.53
2019-03-27T23:55:03.448Z,13.28
